createdAt,value
2023-05-08T00:01:17.595Z,28.10
2023-05-08T00:03:44.257Z,31.80
2023-05-08T00:06:10.919Z,28.45
2023-05-08T00:08:37.441Z,26.88
2023-05-08T00:11:03.944Z,27.23
2023-05-08T00:13:30.592Z,28.75
2023-05-08T00:15:57.160Z,31.02
2023-05-08T00:18:23.840Z,26.90
2023-05-08T00:20:50.369Z,27.70
2023-05-08T00:23:16.800Z,27.75
2023-05-08T00:25:43.668Z,29.73
2023-05-08T00:28:10.175Z,29.40
2023-05-08T00:30:36.837Z,27.63
2023-05-08T00:33:03.442Z,29.52
2023-05-08T00:35:29.955Z,27.95
2023-05-08T00:37:56.467Z,30.05
2023-05-08T00:40:23.012Z,27.15
2023-05-08T00:42:49.481Z,29.52
2023-05-08T00:45:15.942Z,30.13
2023-05-08T00:47:42.783Z,27.13
2023-05-08T00:50:10.697Z,28.60
2023-05-08T00:52:37.846Z,27.67
2023-05-08T00:55:05.651Z,27.88
2023-05-08T00:57:35.714Z,27.73
2023-05-08T01:00:04.326Z,30.45
2023-05-08T01:02:32.047Z,26.48
2023-05-08T01:04:58.997Z,26.73
2023-05-08T01:07:26.083Z,29.45
2023-05-08T01:09:53.382Z,27.88
2023-05-08T01:12:25.872Z,27.77
2023-05-08T01:15:10.747Z,26.15
2023-05-08T01:17:41.194Z,26.53
2023-05-08T01:20:48.879Z,27.25
2023-05-08T01:23:52.719Z,26.13
2023-05-08T01:26:55.970Z,27.70
2023-05-08T01:29:51.604Z,29.58
2023-05-08T01:32:52.283Z,30.25
2023-05-08T01:35:29.903Z,36.53
2023-05-08T01:38:12.652Z,26.48
2023-05-08T01:41:07.030Z,30.65
2023-05-08T01:43:37.124Z,27.58
2023-05-08T01:46:10.021Z,26.33
2023-05-08T01:48:44.489Z,28.65
2023-05-08T01:51:20.786Z,26.23
2023-05-08T01:54:00.832Z,28.52
2023-05-08T01:56:29.722Z,27.15
2023-05-08T01:58:59.026Z,30.38
2023-05-08T02:01:29.367Z,31.05
2023-05-08T02:03:56.585Z,27.98
2023-05-08T02:06:25.098Z,28.17
2023-05-08T02:08:53.581Z,27.67
2023-05-08T02:11:21.627Z,30.80
2023-05-08T02:13:49.896Z,28.40
2023-05-08T02:16:19.017Z,28.92
2023-05-08T02:18:51.080Z,29.25
2023-05-08T02:21:19.763Z,28.63
2023-05-08T02:23:47.183Z,28.67
2023-05-08T02:26:17.005Z,28.10
2023-05-08T02:28:44.316Z,29.33
2023-05-08T02:31:12.416Z,27.75
2023-05-08T02:33:42.001Z,27.63
2023-05-08T02:36:10.879Z,28.45
2023-05-08T02:38:39.787Z,28.70
2023-05-08T02:41:07.895Z,29.40
2023-05-08T02:43:35.172Z,29.92
2023-05-08T02:46:12.906Z,28.20
2023-05-08T02:49:02.322Z,28.15
2023-05-08T02:51:46.600Z,28.60
2023-05-08T02:54:56.175Z,28.02
2023-05-08T02:57:50.878Z,27.90
2023-05-08T03:00:26.980Z,30.00
2023-05-08T03:02:59.598Z,31.50
2023-05-08T03:05:31.718Z,30.77
2023-05-08T03:08:03.817Z,33.22
2023-05-08T03:10:34.875Z,33.35
2023-05-08T03:13:05.030Z,30.15
2023-05-08T03:15:43.292Z,29.70
2023-05-08T03:18:14.917Z,30.33
2023-05-08T03:20:46.377Z,30.23
2023-05-08T03:23:15.570Z,31.40
2023-05-08T03:25:43.734Z,29.30
2023-05-08T03:28:11.430Z,31.52
2023-05-08T03:30:40.239Z,28.38
2023-05-08T03:33:08.514Z,27.77
2023-05-08T03:35:39.179Z,28.25
2023-05-08T03:38:06.847Z,27.05
2023-05-08T03:40:38.699Z,28.95
2023-05-08T03:43:08.692Z,31.55
2023-05-08T03:45:37.327Z,30.67
2023-05-08T03:48:06.189Z,28.10
2023-05-08T03:50:35.521Z,29.60
2023-05-08T03:53:02.267Z,28.83
2023-05-08T03:55:30.527Z,29.50
2023-05-08T03:58:03.225Z,33.42
2023-05-08T04:00:37.805Z,28.00
2023-05-08T04:03:19.672Z,29.55
2023-05-08T04:06:10.893Z,30.95
2023-05-08T04:08:48.266Z,26.75
2023-05-08T04:11:42.885Z,32.60
2023-05-08T04:14:16.216Z,32.90
2023-05-08T04:16:49.894Z,31.63
2023-05-08T04:19:23.004Z,30.83
2023-05-08T04:21:50.963Z,29.88
2023-05-08T04:24:19.578Z,28.25
2023-05-08T04:26:46.273Z,29.15
2023-05-08T04:29:13.935Z,28.20
2023-05-08T04:31:41.381Z,30.42
2023-05-08T04:34:09.212Z,30.90
2023-05-08T04:36:35.737Z,33.97
2023-05-08T04:39:02.186Z,31.42
2023-05-08T04:41:28.808Z,29.05
2023-05-08T04:43:55.501Z,31.08
2023-05-08T04:46:22.017Z,30.77
2023-05-08T04:48:48.546Z,31.83
2023-05-08T04:51:14.979Z,34.17
2023-05-08T04:53:41.403Z,31.05
2023-05-08T04:56:08.389Z,34.58
2023-05-08T04:58:34.822Z,34.33
2023-05-08T05:01:05.332Z,30.77
2023-05-08T05:03:31.944Z,29.60
2023-05-08T05:05:59.506Z,30.70
2023-05-08T05:08:26.907Z,30.83
2023-05-08T05:10:53.439Z,29.38
2023-05-08T05:13:20.282Z,29.40
2023-05-08T05:15:46.922Z,30.30
2023-05-08T05:18:13.458Z,28.55
2023-05-08T05:20:40.168Z,31.02
2023-05-08T05:23:06.608Z,29.65
2023-05-08T05:25:33.118Z,31.63
2023-05-08T05:27:59.636Z,28.10
2023-05-08T05:30:26.141Z,29.15
2023-05-08T05:32:52.699Z,28.50
2023-05-08T05:35:20.445Z,30.75
2023-05-08T05:37:46.895Z,28.02
2023-05-08T05:40:13.435Z,30.52
2023-05-08T05:42:39.925Z,30.27
2023-05-08T05:45:07.095Z,30.85
2023-05-08T05:47:33.628Z,29.00
2023-05-08T05:50:00.150Z,31.05
2023-05-08T05:52:26.768Z,27.75
2023-05-08T05:54:56.165Z,28.70
2023-05-08T05:57:22.828Z,35.38
2023-05-08T05:59:49.562Z,33.42
2023-05-08T06:02:18.673Z,32.70
2023-05-08T06:04:45.486Z,30.17
2023-05-08T06:07:12.051Z,29.48
2023-05-08T06:09:38.591Z,30.05
2023-05-08T06:12:05.233Z,35.33
2023-05-08T06:14:31.785Z,29.75
2023-05-08T06:16:58.325Z,30.73
2023-05-08T06:19:24.879Z,31.38
2023-05-08T06:21:54.609Z,31.70
2023-05-08T06:24:21.026Z,33.60
2023-05-08T06:26:47.759Z,33.40
2023-05-08T06:29:14.945Z,30.48
2023-05-08T06:31:42.185Z,29.48
2023-05-08T06:34:09.192Z,32.00
2023-05-08T06:36:36.359Z,32.28
2023-05-08T06:39:06.166Z,30.58
2023-05-08T06:41:32.702Z,29.88
2023-05-08T06:43:59.388Z,32.97
2023-05-08T06:46:26.019Z,30.42
2023-05-08T06:48:52.528Z,32.25
2023-05-08T06:51:19.895Z,32.33
2023-05-08T06:53:46.395Z,30.15
2023-05-08T06:56:12.896Z,32.33
2023-05-08T06:58:39.344Z,28.48
2023-05-08T07:01:06.006Z,27.95
2023-05-08T07:03:32.803Z,30.52
2023-05-08T07:05:59.226Z,29.05
2023-05-08T07:08:25.980Z,31.55
2023-05-08T07:10:53.186Z,25.02
2023-05-08T07:13:21.941Z,26.83
2023-05-08T07:15:51.516Z,26.02
2023-05-08T07:18:18.086Z,25.52
2023-05-08T07:20:44.579Z,26.98
2023-05-08T07:23:11.066Z,27.02
2023-05-08T07:25:37.554Z,23.88
2023-05-08T07:28:04.230Z,23.65
2023-05-08T07:30:31.536Z,24.08
2023-05-08T07:32:58.047Z,23.77
2023-05-08T07:35:24.915Z,24.30
2023-05-08T07:37:51.367Z,24.20
2023-05-08T07:40:17.954Z,20.45
2023-05-08T07:42:45.522Z,23.45
2023-05-08T07:45:13.667Z,26.40
2023-05-08T07:47:49.537Z,22.58
2023-05-08T07:50:16.112Z,23.25
2023-05-08T07:52:45.649Z,21.48
2023-05-08T07:55:39.279Z,22.48
2023-05-08T07:58:06.668Z,19.80
2023-05-08T08:00:33.360Z,24.65
2023-05-08T08:02:59.966Z,15.57
2023-05-08T08:05:26.532Z,21.98
2023-05-08T08:07:53.024Z,20.90
2023-05-08T08:10:19.481Z,22.85
2023-05-08T08:12:46.072Z,21.23
2023-05-08T08:15:12.821Z,24.85
2023-05-08T08:17:39.490Z,18.67
2023-05-08T08:20:06.872Z,21.17
2023-05-08T08:22:33.408Z,19.67
2023-05-08T08:24:59.881Z,19.05
2023-05-08T08:27:26.321Z,22.50
2023-05-08T08:30:01.499Z,22.45
2023-05-08T08:32:39.022Z,20.35
2023-05-08T08:35:05.909Z,21.60
2023-05-08T08:37:32.411Z,17.75
2023-05-08T08:39:59.942Z,18.13
2023-05-08T08:42:26.400Z,14.70
2023-05-08T08:44:52.895Z,1.90
2023-05-08T08:47:22.749Z,14.93
2023-05-08T08:49:51.009Z,16.80
2023-05-08T08:52:32.000Z,17.92
2023-05-08T08:55:02.414Z,12.90
2023-05-08T08:57:33.882Z,12.23
2023-05-08T09:00:05.251Z,10.13
2023-05-08T09:02:31.967Z,12.10
2023-05-08T09:04:59.384Z,10.35
2023-05-08T09:07:26.864Z,9.23
2023-05-08T09:09:54.306Z,9.30
2023-05-08T09:12:20.984Z,9.45
2023-05-08T09:14:47.700Z,10.43
2023-05-08T09:17:14.421Z,8.32
2023-05-08T09:19:41.214Z,9.57
2023-05-08T09:22:09.294Z,9.40
2023-05-08T09:24:59.065Z,7.30
2023-05-08T09:27:27.634Z,10.43
2023-05-08T09:30:14.590Z,6.57
2023-05-08T09:32:43.291Z,8.02
2023-05-08T09:35:11.158Z,9.30
2023-05-08T09:37:39.367Z,7.03
2023-05-08T09:40:17.549Z,6.93
2023-05-08T09:42:44.578Z,9.57
2023-05-08T09:45:11.892Z,7.90
2023-05-08T09:47:39.926Z,10.05
2023-05-08T09:50:09.160Z,8.57
2023-05-08T09:52:37.277Z,7.90
2023-05-08T09:55:03.804Z,7.75
2023-05-08T09:57:53.788Z,12.13
2023-05-08T10:00:20.748Z,8.15
2023-05-08T10:03:06.241Z,9.50
2023-05-08T10:05:35.850Z,6.55
2023-05-08T10:08:26.852Z,10.63
2023-05-08T10:10:53.327Z,13.32
2023-05-08T10:13:19.849Z,9.35
2023-05-08T10:15:54.450Z,10.13
2023-05-08T10:18:24.353Z,11.43
2023-05-08T10:20:53.603Z,9.07
2023-05-08T10:23:20.443Z,9.43
2023-05-08T10:25:48.720Z,12.45
2023-05-08T10:28:25.809Z,13.05
2023-05-08T10:30:56.831Z,10.40
2023-05-08T10:33:31.069Z,11.43
2023-05-08T10:35:58.870Z,10.45
2023-05-08T10:38:25.760Z,9.88
2023-05-08T10:40:58.280Z,9.45
2023-05-08T10:43:25.700Z,9.55
2023-05-08T10:45:55.581Z,10.15
2023-05-08T10:48:47.238Z,11.43
2023-05-08T10:51:27.564Z,10.05
2023-05-08T10:53:59.456Z,11.57
2023-05-08T10:56:29.216Z,13.32
2023-05-08T10:58:57.519Z,8.02
2023-05-08T11:01:24.934Z,9.90
2023-05-08T11:03:52.551Z,10.80
2023-05-08T11:06:46.541Z,9.15
2023-05-08T11:09:26.973Z,9.65
2023-05-08T11:12:24.375Z,9.13
2023-05-08T11:14:59.972Z,6.60
2023-05-08T11:17:26.761Z,7.30
2023-05-08T11:20:01.439Z,6.03
2023-05-08T11:22:32.730Z,8.10
2023-05-08T11:25:11.906Z,9.98
2023-05-08T11:27:44.316Z,9.13
2023-05-08T11:30:37.197Z,10.38
2023-05-08T11:33:04.001Z,6.75
2023-05-08T11:35:56.594Z,5.95
2023-05-08T11:38:28.935Z,7.63
2023-05-08T11:41:00.843Z,8.93
2023-05-08T11:43:33.367Z,9.40
2023-05-08T11:46:08.343Z,9.20
2023-05-08T11:48:35.984Z,9.88
2023-05-08T11:51:03.576Z,5.22
2023-05-08T11:53:31.350Z,10.80
2023-05-08T11:55:59.236Z,11.05
2023-05-08T11:58:26.541Z,8.20
2023-05-08T12:00:54.714Z,12.38
2023-05-08T12:03:25.095Z,12.23
2023-05-08T12:05:55.540Z,13.68
2023-05-08T12:08:22.144Z,10.77
2023-05-08T12:10:54.362Z,13.80
2023-05-08T12:13:30.206Z,10.07
2023-05-08T12:15:59.752Z,7.47
2023-05-08T12:18:28.270Z,7.70
2023-05-08T12:20:58.797Z,8.77
2023-05-08T12:23:26.486Z,8.35
2023-05-08T12:25:55.308Z,7.38
2023-05-08T12:28:22.741Z,7.47
2023-05-08T12:30:50.121Z,4.40
2023-05-08T12:33:17.292Z,9.93
2023-05-08T12:35:44.181Z,4.70
2023-05-08T12:38:11.958Z,5.93
2023-05-08T12:40:43.567Z,4.50
2023-05-08T12:43:11.677Z,10.27
2023-05-08T12:45:40.372Z,5.78
2023-05-08T12:48:09.429Z,5.15
2023-05-08T12:50:44.283Z,5.68
2023-05-08T12:53:15.580Z,6.43
2023-05-08T12:55:52.788Z,7.10
2023-05-08T12:58:20.452Z,6.45
2023-05-08T13:00:52.510Z,4.70
2023-05-08T13:03:25.651Z,5.75
2023-05-08T13:05:53.292Z,6.95
2023-05-08T13:08:20.123Z,5.43
2023-05-08T13:10:51.832Z,4.38
2023-05-08T13:13:31.041Z,6.07
2023-05-08T13:15:58.337Z,3.45
2023-05-08T13:18:27.519Z,7.18
2023-05-08T13:20:56.142Z,6.72
2023-05-08T13:23:23.464Z,4.85
2023-05-08T13:25:50.679Z,7.18
2023-05-08T13:28:17.717Z,5.18
2023-05-08T13:30:44.184Z,8.13
2023-05-08T13:33:10.784Z,6.00
2023-05-08T13:35:37.314Z,6.95
2023-05-08T13:38:03.793Z,5.63
2023-05-08T13:40:30.269Z,6.25
2023-05-08T13:42:56.804Z,4.68
2023-05-08T13:45:23.376Z,7.43
2023-05-08T13:47:50.514Z,5.40
2023-05-08T13:50:19.515Z,8.63
2023-05-08T13:52:45.957Z,7.45
2023-05-08T13:55:13.800Z,6.10
2023-05-08T13:57:41.216Z,7.38
2023-05-08T14:00:09.032Z,7.25
2023-05-08T14:02:37.261Z,10.20
2023-05-08T14:05:04.544Z,6.18
2023-05-08T14:07:31.071Z,9.23
2023-05-08T14:09:57.614Z,7.15
2023-05-08T14:12:24.097Z,6.97
2023-05-08T14:14:50.598Z,8.30
2023-05-08T14:17:17.063Z,6.78
2023-05-08T14:19:43.562Z,8.30
2023-05-08T14:22:10.089Z,9.52
2023-05-08T14:24:36.590Z,6.80
2023-05-08T14:27:05.912Z,9.20
2023-05-08T14:29:35.883Z,7.68
2023-05-08T14:32:02.681Z,8.05
2023-05-08T14:34:29.246Z,11.15
2023-05-08T14:36:55.765Z,10.98
2023-05-08T14:39:22.245Z,7.45
2023-05-08T14:42:10.315Z,8.73
2023-05-08T14:44:35.259Z,11.50
2023-05-08T14:47:01.773Z,9.43
2023-05-08T14:49:37.479Z,9.25
2023-05-08T14:52:06.379Z,10.63
2023-05-08T14:54:33.181Z,7.57
2023-05-08T14:57:00.142Z,11.55
2023-05-08T14:59:26.680Z,10.23
2023-05-08T15:01:53.275Z,15.05
2023-05-08T15:04:19.856Z,11.98
2023-05-08T15:06:46.702Z,9.88
2023-05-08T15:09:13.161Z,11.85
2023-05-08T15:11:39.728Z,13.27
2023-05-08T15:14:06.302Z,12.18
2023-05-08T15:16:32.981Z,11.15
2023-05-08T15:19:00.091Z,11.90
2023-05-08T15:21:27.407Z,12.32
2023-05-08T15:23:55.130Z,15.52
2023-05-08T15:26:22.485Z,10.43
2023-05-08T15:28:49.117Z,11.40
2023-05-08T15:31:15.933Z,11.48
2023-05-08T15:33:44.979Z,10.80
2023-05-08T15:36:13.400Z,12.77
2023-05-08T15:38:43.559Z,12.32
2023-05-08T15:41:14.758Z,10.93
2023-05-08T15:43:42.272Z,12.63
2023-05-08T15:46:08.852Z,8.43
2023-05-08T15:48:35.449Z,11.52
2023-05-08T15:51:01.905Z,11.32
2023-05-08T15:53:28.478Z,11.55
2023-05-08T15:55:56.818Z,11.70
2023-05-08T15:58:23.345Z,10.95
2023-05-08T16:00:49.892Z,13.05
2023-05-08T16:03:16.505Z,12.65
2023-05-08T16:05:43.497Z,11.40
2023-05-08T16:08:12.675Z,9.68
2023-05-08T16:10:40.740Z,11.00
2023-05-08T16:13:07.631Z,12.82
2023-05-08T16:15:34.178Z,11.95
2023-05-08T16:18:00.718Z,12.70
2023-05-08T16:20:27.190Z,16.45
2023-05-08T16:23:02.670Z,12.45
2023-05-08T16:25:29.206Z,12.52
2023-05-08T16:27:55.760Z,10.80
2023-05-08T16:30:22.285Z,12.00
2023-05-08T16:32:48.798Z,11.32
2023-05-08T16:35:15.811Z,13.15
2023-05-08T16:37:42.800Z,9.10
2023-05-08T16:40:10.329Z,10.75
2023-05-08T16:42:37.576Z,7.88
2023-05-08T16:45:08.243Z,8.18
2023-05-08T16:47:35.343Z,12.50
2023-05-08T16:50:02.109Z,8.75
2023-05-08T16:52:28.895Z,9.48
2023-05-08T16:54:55.437Z,7.30
2023-05-08T16:57:21.919Z,8.45
2023-05-08T16:59:48.388Z,7.63
2023-05-08T17:02:18.713Z,6.75
2023-05-08T17:04:49.284Z,6.72
2023-05-08T17:07:16.386Z,6.95
2023-05-08T17:09:43.109Z,7.22
2023-05-08T17:12:09.928Z,8.52
2023-05-08T17:14:39.216Z,8.25
2023-05-08T17:17:06.169Z,9.55
2023-05-08T17:19:32.709Z,10.13
2023-05-08T17:21:59.834Z,9.23
2023-05-08T17:24:26.578Z,9.43
2023-05-08T17:26:53.082Z,8.77
2023-05-08T17:29:19.560Z,9.25
2023-05-08T17:31:46.143Z,6.97
2023-05-08T17:34:12.764Z,10.60
2023-05-08T17:36:39.268Z,9.05
2023-05-08T17:39:05.771Z,9.75
2023-05-08T17:41:32.264Z,9.50
2023-05-08T17:43:58.805Z,9.98
2023-05-08T17:46:25.322Z,10.73
2023-05-08T17:48:51.779Z,15.88
2023-05-08T17:51:18.316Z,10.82
2023-05-08T17:53:44.831Z,11.60
2023-05-08T17:56:11.725Z,9.52
2023-05-08T17:58:38.176Z,20.52
2023-05-08T18:01:06.181Z,10.40
2023-05-08T18:03:32.718Z,12.90
2023-05-08T18:05:59.311Z,12.43
2023-05-08T18:08:25.849Z,11.18
2023-05-08T18:10:52.344Z,12.27
2023-05-08T18:13:18.815Z,12.77
2023-05-08T18:15:45.447Z,9.68
2023-05-08T18:18:11.943Z,10.00
2023-05-08T18:20:38.443Z,16.25
2023-05-08T18:23:04.908Z,10.05
2023-05-08T18:25:31.403Z,11.57
2023-05-08T18:27:58.878Z,14.27
2023-05-08T18:30:25.454Z,11.20
2023-05-08T18:32:53.219Z,11.40
2023-05-08T18:35:21.554Z,12.02
2023-05-08T18:37:48.151Z,14.20
2023-05-08T18:40:14.869Z,13.95
2023-05-08T18:42:41.586Z,13.95
2023-05-08T18:45:08.841Z,12.48
2023-05-08T18:47:35.304Z,11.52
2023-05-08T18:50:01.805Z,16.13
2023-05-08T18:52:28.312Z,12.43
2023-05-08T18:54:54.780Z,13.45
2023-05-08T18:57:21.211Z,12.25
2023-05-08T18:59:47.671Z,16.65
2023-05-08T19:02:14.524Z,13.90
2023-05-08T19:04:41.040Z,15.95
2023-05-08T19:07:07.523Z,12.80
2023-05-08T19:09:34.138Z,20.13
2023-05-08T19:12:00.693Z,17.20
2023-05-08T19:14:27.276Z,16.17
2023-05-08T19:16:55.615Z,16.38
2023-05-08T19:19:23.503Z,15.75
2023-05-08T19:21:49.964Z,20.65
2023-05-08T19:24:20.364Z,15.82
2023-05-08T19:26:47.342Z,16.17
2023-05-08T19:29:13.872Z,14.95
2023-05-08T19:31:40.465Z,14.95
2023-05-08T19:34:07.323Z,16.92
2023-05-08T19:36:36.070Z,15.52
2023-05-08T19:39:04.109Z,17.33
2023-05-08T19:41:30.559Z,14.65
2023-05-08T19:43:57.013Z,17.00
2023-05-08T19:46:23.616Z,14.60
2023-05-08T19:48:50.169Z,17.27
2023-05-08T19:51:16.794Z,13.45
2023-05-08T19:53:43.378Z,12.48
2023-05-08T19:56:09.849Z,15.45
2023-05-08T19:58:36.303Z,10.07
2023-05-08T20:01:02.844Z,12.55
2023-05-08T20:03:29.514Z,11.57
2023-05-08T20:05:56.558Z,13.63
2023-05-08T20:08:23.064Z,13.95
2023-05-08T20:10:49.602Z,12.85
2023-05-08T20:13:17.220Z,12.05
2023-05-08T20:15:43.934Z,14.32
2023-05-08T20:18:10.499Z,12.23
2023-05-08T20:20:37.090Z,13.15
2023-05-08T20:23:04.384Z,13.00
2023-05-08T20:25:30.976Z,13.73
2023-05-08T20:27:57.462Z,11.20
2023-05-08T20:30:24.150Z,12.93
2023-05-08T20:32:50.742Z,15.73
2023-05-08T20:35:17.273Z,15.02
2023-05-08T20:37:45.217Z,14.05
2023-05-08T20:40:12.518Z,10.80
2023-05-08T20:42:41.097Z,13.77
2023-05-08T20:45:09.159Z,11.15
2023-05-08T20:47:36.048Z,15.82
2023-05-08T20:50:03.113Z,19.25
2023-05-08T20:52:32.106Z,13.35
2023-05-08T20:54:59.010Z,15.27
2023-05-08T20:57:25.749Z,15.35
2023-05-08T20:59:52.220Z,13.52
2023-05-08T21:02:18.732Z,13.10
2023-05-08T21:04:45.245Z,15.45
2023-05-08T21:07:11.838Z,12.95
2023-05-08T21:09:38.293Z,14.68
2023-05-08T21:12:04.993Z,14.07
2023-05-08T21:14:31.505Z,19.23
2023-05-08T21:16:57.981Z,14.15
2023-05-08T21:19:24.611Z,13.73
2023-05-08T21:21:51.198Z,16.45
2023-05-08T21:24:17.773Z,15.45
2023-05-08T21:26:44.216Z,14.00
2023-05-08T21:29:11.275Z,14.48
2023-05-08T21:31:37.794Z,15.93
2023-05-08T21:34:04.503Z,13.63
2023-05-08T21:36:32.184Z,15.73
2023-05-08T21:38:58.708Z,14.65
2023-05-08T21:41:25.223Z,16.38
2023-05-08T21:43:51.779Z,14.23
2023-05-08T21:46:18.331Z,17.40
2023-05-08T21:48:44.793Z,15.40
2023-05-08T21:51:11.504Z,15.07
2023-05-08T21:53:38.054Z,14.35
2023-05-08T21:56:04.899Z,16.52
2023-05-08T21:58:31.366Z,14.25
2023-05-08T22:00:58.859Z,15.93
2023-05-08T22:03:25.754Z,15.52
2023-05-08T22:05:52.358Z,16.65
2023-05-08T22:08:18.836Z,14.77
2023-05-08T22:10:46.179Z,19.73
2023-05-08T22:13:13.142Z,16.75
2023-05-08T22:15:39.719Z,18.20
2023-05-08T22:18:06.218Z,17.88
2023-05-08T22:20:33.220Z,16.85
2023-05-08T22:22:59.727Z,16.75
2023-05-08T22:25:26.768Z,16.48
2023-05-08T22:27:53.393Z,16.95
2023-05-08T22:30:20.141Z,17.38
2023-05-08T22:32:53.365Z,17.27
2023-05-08T22:35:22.388Z,15.38
2023-05-08T22:37:48.858Z,18.20
2023-05-08T22:40:15.387Z,19.30
2023-05-08T22:42:42.452Z,15.68
2023-05-08T22:45:09.950Z,17.77
2023-05-08T22:47:36.489Z,14.93
2023-05-08T22:50:08.261Z,16.08
2023-05-08T22:52:36.082Z,16.10
2023-05-08T22:55:03.097Z,15.88
2023-05-08T22:57:29.606Z,14.80
2023-05-08T22:59:56.088Z,18.15
2023-05-08T23:02:22.635Z,18.95
2023-05-08T23:04:49.316Z,16.52
2023-05-08T23:07:16.088Z,17.45
2023-05-08T23:09:42.539Z,14.55
2023-05-08T23:12:09.085Z,13.27
2023-05-08T23:14:35.609Z,15.23
2023-05-08T23:17:02.180Z,16.55
2023-05-08T23:19:28.689Z,15.13
2023-05-08T23:21:55.129Z,17.33
2023-05-08T23:24:21.564Z,17.63
2023-05-08T23:26:49.678Z,19.95
2023-05-08T23:29:16.154Z,14.40
2023-05-08T23:31:42.623Z,15.30
2023-05-08T23:34:09.193Z,14.18
2023-05-08T23:36:35.873Z,19.13
2023-05-08T23:39:02.390Z,16.15
2023-05-08T23:41:28.906Z,17.25
2023-05-08T23:43:55.969Z,19.42
2023-05-08T23:46:22.440Z,16.67
2023-05-08T23:48:49.009Z,15.63
2023-05-08T23:51:15.459Z,19.30
2023-05-08T23:53:42.287Z,16.35
2023-05-08T23:56:08.948Z,17.92
2023-05-08T23:58:35.566Z,16.40
